sensor_id;sensor_type;location;lat;lon;timestamp;P1;durP1;ratioP1;P2;durP2;ratioP2
24617;SDS011;12762;51.730;5.356;2023-09-19T00:00:43;8.60;;;2.23;;
24617;SDS011;12762;51.730;5.356;2023-09-19T00:03:13;13.57;;;2.87;;
24617;SDS011;12762;51.730;5.356;2023-09-19T00:05:40;10.97;;;2.87;;
24617;SDS011;12762;51.730;5.356;2023-09-19T00:08:11;14.53;;;2.70;;
24617;SDS011;12762;51.730;5.356;2023-09-19T00:10:40;11.03;;;2.90;;
24617;SDS011;12762;51.730;5.356;2023-09-19T00:13:08;10.57;;;2.70;;
24617;SDS011;12762;51.730;5.356;2023-09-19T00:15:46;13.10;;;2.43;;
24617;SDS011;12762;51.730;5.356;2023-09-19T00:18:17;9.17;;;2.27;;
24617;SDS011;12762;51.730;5.356;2023-09-19T00:20:49;14.60;;;3.30;;
24617;SDS011;12762;51.730;5.356;2023-09-19T00:23:17;10.43;;;2.37;;
24617;SDS011;12762;51.730;5.356;2023-09-19T00:25:46;10.00;;;2.53;;
24617;SDS011;12762;51.730;5.356;2023-09-19T00:28:12;13.00;;;2.27;;
24617;SDS011;12762;51.730;5.356;2023-09-19T00:30:42;9.57;;;2.13;;
24617;SDS011;12762;51.730;5.356;2023-09-19T00:33:09;9.77;;;2.27;;
24617;SDS011;12762;51.730;5.356;2023-09-19T00:35:37;9.83;;;2.13;;
24617;SDS011;12762;51.730;5.356;2023-09-19T00:38:04;6.47;;;1.80;;
24617;SDS011;12762;51.730;5.356;2023-09-19T00:40:33;10.17;;;1.80;;
24617;SDS011;12762;51.730;5.356;2023-09-19T00:43:00;12.97;;;2.17;;
24617;SDS011;12762;51.730;5.356;2023-09-19T00:45:26;12.73;;;2.50;;
24617;SDS011;12762;51.730;5.356;2023-09-19T00:47:55;10.23;;;2.30;;
24617;SDS011;12762;51.730;5.356;2023-09-19T00:50:24;11.43;;;1.87;;
24617;SDS011;12762;51.730;5.356;2023-09-19T00:52:55;12.60;;;2.87;;
24617;SDS011;12762;51.730;5.356;2023-09-19T00:55:23;11.20;;;2.10;;
24617;SDS011;12762;51.730;5.356;2023-09-19T00:57:51;7.53;;;2.30;;
24617;SDS011;12762;51.730;5.356;2023-09-19T01:00:19;14.63;;;2.20;;
24617;SDS011;12762;51.730;5.356;2023-09-19T01:02:46;12.97;;;1.83;;
24617;SDS011;12762;51.730;5.356;2023-09-19T01:05:14;10.47;;;2.60;;
24617;SDS011;12762;51.730;5.356;2023-09-19T01:07:42;9.87;;;2.03;;
24617;SDS011;12762;51.730;5.356;2023-09-19T01:10:15;8.57;;;1.73;;
24617;SDS011;12762;51.730;5.356;2023-09-19T01:15:21;9.97;;;2.27;;
24617;SDS011;12762;51.730;5.356;2023-09-19T01:18:07;9.30;;;1.90;;
24617;SDS011;12762;51.730;5.356;2023-09-19T01:32:03;12.23;;;2.00;;
24617;SDS011;12762;51.730;5.356;2023-09-19T01:34:48;8.77;;;2.03;;
24617;SDS011;12762;51.730;5.356;2023-09-19T01:37:17;8.10;;;1.53;;
24617;SDS011;12762;51.730;5.356;2023-09-19T01:39:47;11.83;;;2.57;;
24617;SDS011;12762;51.730;5.356;2023-09-19T01:45:08;13.90;;;2.63;;
24617;SDS011;12762;51.730;5.356;2023-09-19T01:47:42;8.17;;;1.90;;
24617;SDS011;12762;51.730;5.356;2023-09-19T01:50:27;11.77;;;2.27;;
24617;SDS011;12762;51.730;5.356;2023-09-19T01:53:28;8.70;;;2.00;;
24617;SDS011;12762;51.730;5.356;2023-09-19T01:56:01;9.20;;;1.40;;
24617;SDS011;12762;51.730;5.356;2023-09-19T01:58:40;11.17;;;2.03;;
24617;SDS011;12762;51.730;5.356;2023-09-19T02:01:21;9.33;;;1.87;;
24617;SDS011;12762;51.730;5.356;2023-09-19T02:03:52;10.70;;;2.00;;
24617;SDS011;12762;51.730;5.356;2023-09-19T02:06:20;11.50;;;2.03;;
24617;SDS011;12762;51.730;5.356;2023-09-19T02:08:47;9.50;;;2.20;;
24617;SDS011;12762;51.730;5.356;2023-09-19T02:11:15;12.20;;;2.00;;
24617;SDS011;12762;51.730;5.356;2023-09-19T02:13:42;11.40;;;1.93;;
24617;SDS011;12762;51.730;5.356;2023-09-19T02:16:09;8.63;;;1.70;;
24617;SDS011;12762;51.730;5.356;2023-09-19T02:18:38;10.00;;;2.23;;
24617;SDS011;12762;51.730;5.356;2023-09-19T02:21:05;9.53;;;1.90;;
24617;SDS011;12762;51.730;5.356;2023-09-19T02:23:39;15.87;;;2.27;;
24617;SDS011;12762;51.730;5.356;2023-09-19T02:26:07;14.27;;;2.10;;
24617;SDS011;12762;51.730;5.356;2023-09-19T02:28:34;6.43;;;1.77;;
24617;SDS011;12762;51.730;5.356;2023-09-19T02:31:02;10.57;;;1.87;;
24617;SDS011;12762;51.730;5.356;2023-09-19T02:33:31;13.13;;;2.23;;
24617;SDS011;12762;51.730;5.356;2023-09-19T02:36:02;12.40;;;2.20;;
24617;SDS011;12762;51.730;5.356;2023-09-19T02:38:32;7.40;;;1.50;;
24617;SDS011;12762;51.730;5.356;2023-09-19T02:40:59;9.57;;;2.10;;
24617;SDS011;12762;51.730;5.356;2023-09-19T02:43:29;8.80;;;1.90;;
24617;SDS011;12762;51.730;5.356;2023-09-19T02:45:56;9.53;;;2.30;;
24617;SDS011;12762;51.730;5.356;2023-09-19T02:48:23;9.43;;;2.17;;
24617;SDS011;12762;51.730;5.356;2023-09-19T02:50:51;9.77;;;1.70;;
24617;SDS011;12762;51.730;5.356;2023-09-19T02:53:18;7.03;;;1.50;;
24617;SDS011;12762;51.730;5.356;2023-09-19T02:55:46;10.73;;;1.50;;
24617;SDS011;12762;51.730;5.356;2023-09-19T02:58:13;8.50;;;1.73;;
24617;SDS011;12762;51.730;5.356;2023-09-19T03:00:41;9.57;;;1.70;;
24617;SDS011;12762;51.730;5.356;2023-09-19T03:03:08;9.47;;;2.37;;
24617;SDS011;12762;51.730;5.356;2023-09-19T03:05:35;11.57;;;2.47;;
24617;SDS011;12762;51.730;5.356;2023-09-19T03:08:04;9.67;;;1.83;;
24617;SDS011;12762;51.730;5.356;2023-09-19T03:10:34;10.33;;;2.03;;
24617;SDS011;12762;51.730;5.356;2023-09-19T03:13:03;13.07;;;1.80;;
24617;SDS011;12762;51.730;5.356;2023-09-19T03:15:30;9.37;;;2.30;;
24617;SDS011;12762;51.730;5.356;2023-09-19T03:17:57;12.00;;;1.70;;
24617;SDS011;12762;51.730;5.356;2023-09-19T03:20:26;9.57;;;1.63;;
24617;SDS011;12762;51.730;5.356;2023-09-19T03:22:53;9.63;;;1.47;;
24617;SDS011;12762;51.730;5.356;2023-09-19T03:25:20;8.33;;;1.70;;
24617;SDS011;12762;51.730;5.356;2023-09-19T03:27:49;8.43;;;1.87;;
24617;SDS011;12762;51.730;5.356;2023-09-19T03:30:15;9.83;;;2.90;;
24617;SDS011;12762;51.730;5.356;2023-09-19T03:32:45;6.37;;;1.57;;
24617;SDS011;12762;51.730;5.356;2023-09-19T03:35:13;7.13;;;1.70;;
24617;SDS011;12762;51.730;5.356;2023-09-19T03:37:41;7.70;;;1.70;;
24617;SDS011;12762;51.730;5.356;2023-09-19T03:40:09;11.73;;;1.80;;
24617;SDS011;12762;51.730;5.356;2023-09-19T03:42:42;9.57;;;1.80;;
24617;SDS011;12762;51.730;5.356;2023-09-19T03:45:09;7.17;;;1.30;;
24617;SDS011;12762;51.730;5.356;2023-09-19T03:47:39;11.17;;;2.10;;
24617;SDS011;12762;51.730;5.356;2023-09-19T03:50:10;10.43;;;2.17;;
24617;SDS011;12762;51.730;5.356;2023-09-19T03:52:44;7.27;;;1.70;;
24617;SDS011;12762;51.730;5.356;2023-09-19T03:55:11;8.70;;;2.00;;
24617;SDS011;12762;51.730;5.356;2023-09-19T03:57:37;10.90;;;2.00;;
24617;SDS011;12762;51.730;5.356;2023-09-19T04:00:05;7.83;;;1.50;;
24617;SDS011;12762;51.730;5.356;2023-09-19T04:02:38;7.33;;;1.60;;
24617;SDS011;12762;51.730;5.356;2023-09-19T04:05:13;6.17;;;1.20;;
24617;SDS011;12762;51.730;5.356;2023-09-19T04:07:40;10.87;;;1.90;;
24617;SDS011;12762;51.730;5.356;2023-09-19T04:10:06;6.70;;;1.60;;
24617;SDS011;12762;51.730;5.356;2023-09-19T04:12:35;6.77;;;1.50;;
24617;SDS011;12762;51.730;5.356;2023-09-19T04:15:02;11.23;;;1.40;;
24617;SDS011;12762;51.730;5.356;2023-09-19T04:17:29;9.90;;;2.67;;
24617;SDS011;12762;51.730;5.356;2023-09-19T04:19:56;7.10;;;2.10;;
24617;SDS011;12762;51.730;5.356;2023-09-19T04:22:23;8.67;;;1.97;;
24617;SDS011;12762;51.730;5.356;2023-09-19T04:24:53;5.93;;;1.53;;
24617;SDS011;12762;51.730;5.356;2023-09-19T04:27:20;7.57;;;1.60;;
24617;SDS011;12762;51.730;5.356;2023-09-19T04:29:49;6.57;;;1.47;;
24617;SDS011;12762;51.730;5.356;2023-09-19T04:32:19;10.10;;;1.83;;
24617;SDS011;12762;51.730;5.356;2023-09-19T04:34:46;8.63;;;1.57;;
24617;SDS011;12762;51.730;5.356;2023-09-19T04:37:18;8.97;;;1.80;;
24617;SDS011;12762;51.730;5.356;2023-09-19T04:39:45;11.27;;;1.90;;
24617;SDS011;12762;51.730;5.356;2023-09-19T04:42:12;14.07;;;2.47;;
24617;SDS011;12762;51.730;5.356;2023-09-19T04:44:40;9.33;;;1.80;;
24617;SDS011;12762;51.730;5.356;2023-09-19T04:47:08;6.43;;;1.47;;
24617;SDS011;12762;51.730;5.356;2023-09-19T04:49:35;10.33;;;1.67;;
24617;SDS011;12762;51.730;5.356;2023-09-19T04:52:02;7.57;;;1.60;;
24617;SDS011;12762;51.730;5.356;2023-09-19T04:54:31;11.37;;;1.90;;
24617;SDS011;12762;51.730;5.356;2023-09-19T04:57:01;9.03;;;2.03;;
24617;SDS011;12762;51.730;5.356;2023-09-19T04:59:28;10.87;;;2.17;;
24617;SDS011;12762;51.730;5.356;2023-09-19T05:01:54;12.33;;;2.50;;
24617;SDS011;12762;51.730;5.356;2023-09-19T05:04:22;10.73;;;1.83;;
24617;SDS011;12762;51.730;5.356;2023-09-19T05:06:49;7.13;;;1.60;;
24617;SDS011;12762;51.730;5.356;2023-09-19T05:09:17;8.90;;;1.63;;
24617;SDS011;12762;51.730;5.356;2023-09-19T05:11:46;9.70;;;1.70;;
24617;SDS011;12762;51.730;5.356;2023-09-19T05:14:13;13.23;;;1.90;;
24617;SDS011;12762;51.730;5.356;2023-09-19T05:16:39;10.07;;;1.83;;
24617;SDS011;12762;51.730;5.356;2023-09-19T05:19:06;9.73;;;1.93;;
24617;SDS011;12762;51.730;5.356;2023-09-19T05:21:34;10.30;;;1.87;;
24617;SDS011;12762;51.730;5.356;2023-09-19T05:24:00;8.20;;;1.50;;
24617;SDS011;12762;51.730;5.356;2023-09-19T05:26:28;9.60;;;1.20;;
24617;SDS011;12762;51.730;5.356;2023-09-19T05:28:54;6.97;;;1.50;;
24617;SDS011;12762;51.730;5.356;2023-09-19T05:31:21;10.30;;;1.77;;
24617;SDS011;12762;51.730;5.356;2023-09-19T05:33:49;7.13;;;1.33;;
24617;SDS011;12762;51.730;5.356;2023-09-19T05:36:16;6.70;;;1.40;;
24617;SDS011;12762;51.730;5.356;2023-09-19T05:38:43;12.53;;;1.80;;
24617;SDS011;12762;51.730;5.356;2023-09-19T05:41:10;8.07;;;1.60;;
24617;SDS011;12762;51.730;5.356;2023-09-19T05:43:39;7.20;;;1.63;;
24617;SDS011;12762;51.730;5.356;2023-09-19T05:46:08;13.13;;;2.40;;
24617;SDS011;12762;51.730;5.356;2023-09-19T05:48:35;6.97;;;1.57;;
24617;SDS011;12762;51.730;5.356;2023-09-19T05:51:02;8.20;;;1.60;;
24617;SDS011;12762;51.730;5.356;2023-09-19T05:53:29;6.80;;;1.57;;
24617;SDS011;12762;51.730;5.356;2023-09-19T05:55:56;11.93;;;1.90;;
24617;SDS011;12762;51.730;5.356;2023-09-19T05:58:23;8.20;;;2.60;;
24617;SDS011;12762;51.730;5.356;2023-09-19T06:00:49;11.00;;;2.00;;
24617;SDS011;12762;51.730;5.356;2023-09-19T06:03:16;9.93;;;1.63;;
24617;SDS011;12762;51.730;5.356;2023-09-19T06:05:45;11.17;;;1.80;;
24617;SDS011;12762;51.730;5.356;2023-09-19T06:08:13;8.73;;;2.60;;
24617;SDS011;12762;51.730;5.356;2023-09-19T06:10:39;12.60;;;2.37;;
24617;SDS011;12762;51.730;5.356;2023-09-19T06:13:06;12.53;;;1.87;;
24617;SDS011;12762;51.730;5.356;2023-09-19T06:15:36;11.63;;;1.93;;
24617;SDS011;12762;51.730;5.356;2023-09-19T06:18:05;8.43;;;1.43;;
24617;SDS011;12762;51.730;5.356;2023-09-19T06:20:40;7.87;;;1.80;;
24617;SDS011;12762;51.730;5.356;2023-09-19T06:23:11;9.13;;;1.77;;
24617;SDS011;12762;51.730;5.356;2023-09-19T06:25:38;8.70;;;1.63;;
24617;SDS011;12762;51.730;5.356;2023-09-19T06:28:06;9.33;;;2.23;;
24617;SDS011;12762;51.730;5.356;2023-09-19T06:30:34;8.50;;;1.90;;
24617;SDS011;12762;51.730;5.356;2023-09-19T06:33:02;10.13;;;1.73;;
24617;SDS011;12762;51.730;5.356;2023-09-19T06:35:31;10.03;;;2.37;;
24617;SDS011;12762;51.730;5.356;2023-09-19T06:38:01;10.33;;;1.77;;
24617;SDS011;12762;51.730;5.356;2023-09-19T06:40:30;10.87;;;1.90;;
24617;SDS011;12762;51.730;5.356;2023-09-19T06:42:57;7.93;;;1.70;;
24617;SDS011;12762;51.730;5.356;2023-09-19T06:45:24;10.60;;;1.90;;
24617;SDS011;12762;51.730;5.356;2023-09-19T06:47:52;13.60;;;1.90;;
24617;SDS011;12762;51.730;5.356;2023-09-19T06:50:25;15.60;;;2.33;;
24617;SDS011;12762;51.730;5.356;2023-09-19T06:52:53;10.77;;;1.83;;
24617;SDS011;12762;51.730;5.356;2023-09-19T06:55:23;10.77;;;2.10;;
24617;SDS011;12762;51.730;5.356;2023-09-19T06:57:51;10.93;;;2.03;;
24617;SDS011;12762;51.730;5.356;2023-09-19T07:00:23;10.63;;;2.00;;
24617;SDS011;12762;51.730;5.356;2023-09-19T07:02:57;9.17;;;2.20;;
24617;SDS011;12762;51.730;5.356;2023-09-19T07:05:25;12.80;;;2.20;;
24617;SDS011;12762;51.730;5.356;2023-09-19T07:07:53;9.80;;;1.80;;
24617;SDS011;12762;51.730;5.356;2023-09-19T07:10:21;8.43;;;1.80;;
24617;SDS011;12762;51.730;5.356;2023-09-19T07:13:00;8.43;;;1.93;;
24617;SDS011;12762;51.730;5.356;2023-09-19T07:15:28;8.63;;;2.03;;
24617;SDS011;12762;51.730;5.356;2023-09-19T07:17:56;14.80;;;1.90;;
24617;SDS011;12762;51.730;5.356;2023-09-19T07:20:24;14.33;;;2.00;;
24617;SDS011;12762;51.730;5.356;2023-09-19T07:22:58;12.70;;;1.90;;
24617;SDS011;12762;51.730;5.356;2023-09-19T07:25:28;11.17;;;2.03;;
24617;SDS011;12762;51.730;5.356;2023-09-19T07:27:56;13.37;;;1.90;;
24617;SDS011;12762;51.730;5.356;2023-09-19T07:30:28;20.73;;;3.13;;
24617;SDS011;12762;51.730;5.356;2023-09-19T07:32:55;11.80;;;2.27;;
24617;SDS011;12762;51.730;5.356;2023-09-19T07:35:22;7.50;;;1.80;;
24617;SDS011;12762;51.730;5.356;2023-09-19T07:37:49;11.20;;;2.20;;
24617;SDS011;12762;51.730;5.356;2023-09-19T07:40:20;11.23;;;1.73;;
24617;SDS011;12762;51.730;5.356;2023-09-19T07:42:53;7.97;;;1.80;;
24617;SDS011;12762;51.730;5.356;2023-09-19T07:45:28;12.67;;;3.00;;
24617;SDS011;12762;51.730;5.356;2023-09-19T07:47:56;16.23;;;2.40;;
24617;SDS011;12762;51.730;5.356;2023-09-19T07:50:23;9.60;;;2.37;;
24617;SDS011;12762;51.730;5.356;2023-09-19T07:52:53;10.70;;;2.00;;
24617;SDS011;12762;51.730;5.356;2023-09-19T07:55:22;13.57;;;2.03;;
24617;SDS011;12762;51.730;5.356;2023-09-19T07:57:52;10.33;;;2.10;;
24617;SDS011;12762;51.730;5.356;2023-09-19T08:00:19;9.97;;;1.90;;
24617;SDS011;12762;51.730;5.356;2023-09-19T08:02:46;8.50;;;1.80;;
24617;SDS011;12762;51.730;5.356;2023-09-19T08:05:23;13.83;;;2.07;;
24617;SDS011;12762;51.730;5.356;2023-09-19T08:07:53;11.03;;;2.57;;
24617;SDS011;12762;51.730;5.356;2023-09-19T08:10:24;14.87;;;2.20;;
24617;SDS011;12762;51.730;5.356;2023-09-19T08:12:54;9.10;;;1.90;;
24617;SDS011;12762;51.730;5.356;2023-09-19T08:15:24;11.20;;;2.20;;
24617;SDS011;12762;51.730;5.356;2023-09-19T08:17:51;12.27;;;2.33;;
24617;SDS011;12762;51.730;5.356;2023-09-19T08:20:18;13.83;;;2.00;;
24617;SDS011;12762;51.730;5.356;2023-09-19T08:22:52;20.30;;;2.73;;
24617;SDS011;12762;51.730;5.356;2023-09-19T08:25:21;9.90;;;2.40;;
24617;SDS011;12762;51.730;5.356;2023-09-19T08:27:49;7.17;;;1.67;;
24617;SDS011;12762;51.730;5.356;2023-09-19T08:30:17;11.63;;;2.10;;
24617;SDS011;12762;51.730;5.356;2023-09-19T08:32:50;8.37;;;1.77;;
24617;SDS011;12762;51.730;5.356;2023-09-19T08:35:17;12.53;;;2.17;;
24617;SDS011;12762;51.730;5.356;2023-09-19T08:37:44;11.83;;;2.17;;
24617;SDS011;12762;51.730;5.356;2023-09-19T08:40:14;9.97;;;1.87;;
24617;SDS011;12762;51.730;5.356;2023-09-19T08:42:54;12.17;;;2.00;;
24617;SDS011;12762;51.730;5.356;2023-09-19T08:45:25;12.57;;;2.53;;
24617;SDS011;12762;51.730;5.356;2023-09-19T08:54:03;9.03;;;1.73;;
24617;SDS011;12762;51.730;5.356;2023-09-19T08:56:33;12.37;;;2.10;;
24617;SDS011;12762;51.730;5.356;2023-09-19T08:59:05;8.37;;;2.03;;
24617;SDS011;12762;51.730;5.356;2023-09-19T09:01:38;8.10;;;1.63;;
24617;SDS011;12762;51.730;5.356;2023-09-19T09:04:08;10.80;;;2.10;;
24617;SDS011;12762;51.730;5.356;2023-09-19T09:06:39;12.80;;;1.90;;
24617;SDS011;12762;51.730;5.356;2023-09-19T09:09:09;11.33;;;2.33;;
24617;SDS011;12762;51.730;5.356;2023-09-19T09:11:37;8.50;;;1.70;;
24617;SDS011;12762;51.730;5.356;2023-09-19T09:14:06;13.47;;;2.57;;
24617;SDS011;12762;51.730;5.356;2023-09-19T09:16:34;13.37;;;2.23;;
24617;SDS011;12762;51.730;5.356;2023-09-19T09:19:01;6.97;;;1.80;;
24617;SDS011;12762;51.730;5.356;2023-09-19T09:21:31;10.33;;;2.13;;
24617;SDS011;12762;51.730;5.356;2023-09-19T09:27:00;9.37;;;1.93;;
24617;SDS011;12762;51.730;5.356;2023-09-19T09:29:42;9.13;;;2.10;;
24617;SDS011;12762;51.730;5.356;2023-09-19T09:32:19;8.90;;;2.10;;
24617;SDS011;12762;51.730;5.356;2023-09-19T09:34:52;14.47;;;2.77;;
24617;SDS011;12762;51.730;5.356;2023-09-19T09:37:27;9.47;;;2.40;;
24617;SDS011;12762;51.730;5.356;2023-09-19T09:39:59;8.07;;;1.73;;
24617;SDS011;12762;51.730;5.356;2023-09-19T09:42:57;11.50;;;2.13;;
24617;SDS011;12762;51.730;5.356;2023-09-19T09:45:26;9.63;;;1.93;;
24617;SDS011;12762;51.730;5.356;2023-09-19T09:47:59;9.93;;;1.97;;
24617;SDS011;12762;51.730;5.356;2023-09-19T09:50:33;10.77;;;1.80;;
24617;SDS011;12762;51.730;5.356;2023-09-19T09:53:26;13.57;;;2.07;;
24617;SDS011;12762;51.730;5.356;2023-09-19T09:55:59;9.77;;;2.10;;
24617;SDS011;12762;51.730;5.356;2023-09-19T09:58:36;8.30;;;2.17;;
24617;SDS011;12762;51.730;5.356;2023-09-19T10:01:15;9.33;;;2.20;;
24617;SDS011;12762;51.730;5.356;2023-09-19T10:03:46;12.70;;;2.37;;
24617;SDS011;12762;51.730;5.356;2023-09-19T10:06:15;9.77;;;1.70;;
24617;SDS011;12762;51.730;5.356;2023-09-19T10:09:07;10.87;;;2.27;;
24617;SDS011;12762;51.730;5.356;2023-09-19T10:14:16;8.43;;;1.77;;
24617;SDS011;12762;51.730;5.356;2023-09-19T10:16:46;9.53;;;2.20;;
24617;SDS011;12762;51.730;5.356;2023-09-19T10:19:23;8.00;;;1.63;;
24617;SDS011;12762;51.730;5.356;2023-09-19T10:22:02;8.97;;;1.77;;
24617;SDS011;12762;51.730;5.356;2023-09-19T10:24:33;11.17;;;2.17;;
24617;SDS011;12762;51.730;5.356;2023-09-19T10:27:22;8.83;;;1.47;;
24617;SDS011;12762;51.730;5.356;2023-09-19T10:29:52;9.07;;;1.57;;
24617;SDS011;12762;51.730;5.356;2023-09-19T10:32:23;6.90;;;1.40;;
24617;SDS011;12762;51.730;5.356;2023-09-19T10:34:51;7.87;;;1.90;;
24617;SDS011;12762;51.730;5.356;2023-09-19T10:37:25;7.57;;;1.70;;
24617;SDS011;12762;51.730;5.356;2023-09-19T10:39:56;5.80;;;1.60;;
24617;SDS011;12762;51.730;5.356;2023-09-19T10:42:23;8.57;;;1.47;;
24617;SDS011;12762;51.730;5.356;2023-09-19T10:44:55;3.87;;;1.43;;
24617;SDS011;12762;51.730;5.356;2023-09-19T10:47:26;10.83;;;2.10;;
24617;SDS011;12762;51.730;5.356;2023-09-19T10:49:53;8.50;;;1.67;;
24617;SDS011;12762;51.730;5.356;2023-09-19T10:52:22;7.43;;;1.73;;
24617;SDS011;12762;51.730;5.356;2023-09-19T10:54:52;13.73;;;1.70;;
24617;SDS011;12762;51.730;5.356;2023-09-19T10:57:26;7.20;;;1.63;;
24617;SDS011;12762;51.730;5.356;2023-09-19T11:00:01;8.10;;;1.70;;
24617;SDS011;12762;51.730;5.356;2023-09-19T11:05:39;5.93;;;1.37;;
24617;SDS011;12762;51.730;5.356;2023-09-19T11:08:07;8.73;;;1.57;;
24617;SDS011;12762;51.730;5.356;2023-09-19T11:10:48;7.10;;;1.50;;
24617;SDS011;12762;51.730;5.356;2023-09-19T11:26:48;9.47;;;1.43;;
24617;SDS011;12762;51.730;5.356;2023-09-19T11:31:52;6.20;;;1.40;;
24617;SDS011;12762;51.730;5.356;2023-09-19T11:34:42;5.23;;;1.00;;
24617;SDS011;12762;51.730;5.356;2023-09-19T11:42:43;4.40;;;0.97;;
24617;SDS011;12762;51.730;5.356;2023-09-19T11:48:07;4.90;;;1.00;;
24617;SDS011;12762;51.730;5.356;2023-09-19T11:50:35;4.13;;;1.07;;
24617;SDS011;12762;51.730;5.356;2023-09-19T11:53:03;4.10;;;1.27;;
24617;SDS011;12762;51.730;5.356;2023-09-19T11:55:32;3.40;;;1.27;;
24617;SDS011;12762;51.730;5.356;2023-09-19T11:58:00;6.27;;;1.20;;
24617;SDS011;12762;51.730;5.356;2023-09-19T12:00:27;5.37;;;1.00;;
24617;SDS011;12762;51.730;5.356;2023-09-19T12:02:55;4.87;;;1.17;;
24617;SDS011;12762;51.730;5.356;2023-09-19T12:05:28;5.00;;;0.93;;
24617;SDS011;12762;51.730;5.356;2023-09-19T12:07:56;8.03;;;1.30;;
24617;SDS011;12762;51.730;5.356;2023-09-19T12:10:23;4.73;;;1.07;;
24617;SDS011;12762;51.730;5.356;2023-09-19T12:12:49;2.93;;;1.10;;
24617;SDS011;12762;51.730;5.356;2023-09-19T12:15:25;4.63;;;0.90;;
24617;SDS011;12762;51.730;5.356;2023-09-19T12:18:00;4.00;;;1.10;;
24617;SDS011;12762;51.730;5.356;2023-09-19T12:20:45;4.93;;;1.20;;
24617;SDS011;12762;51.730;5.356;2023-09-19T12:23:16;5.90;;;1.03;;
24617;SDS011;12762;51.730;5.356;2023-09-19T12:25:44;2.60;;;0.90;;
24617;SDS011;12762;51.730;5.356;2023-09-19T12:28:15;2.97;;;0.90;;
24617;SDS011;12762;51.730;5.356;2023-09-19T12:30:43;5.23;;;1.03;;
24617;SDS011;12762;51.730;5.356;2023-09-19T12:33:19;7.10;;;1.17;;
24617;SDS011;12762;51.730;5.356;2023-09-19T12:35:47;5.27;;;1.00;;
24617;SDS011;12762;51.730;5.356;2023-09-19T12:38:24;7.03;;;1.00;;
24617;SDS011;12762;51.730;5.356;2023-09-19T12:40:55;6.03;;;0.83;;
24617;SDS011;12762;51.730;5.356;2023-09-19T12:43:25;7.00;;;0.80;;
24617;SDS011;12762;51.730;5.356;2023-09-19T12:45:53;5.40;;;0.90;;
24617;SDS011;12762;51.730;5.356;2023-09-19T12:48:23;4.83;;;0.80;;
24617;SDS011;12762;51.730;5.356;2023-09-19T12:53:34;5.20;;;1.10;;
24617;SDS011;12762;51.730;5.356;2023-09-19T12:56:11;6.90;;;0.70;;
24617;SDS011;12762;51.730;5.356;2023-09-19T12:58:55;3.93;;;0.90;;
24617;SDS011;12762;51.730;5.356;2023-09-19T13:01:25;4.77;;;1.03;;
24617;SDS011;12762;51.730;5.356;2023-09-19T13:06:47;3.37;;;0.73;;
24617;SDS011;12762;51.730;5.356;2023-09-19T13:09:16;5.80;;;0.90;;
24617;SDS011;12762;51.730;5.356;2023-09-19T13:11:44;4.63;;;1.00;;
24617;SDS011;12762;51.730;5.356;2023-09-19T13:14:15;2.93;;;0.60;;
24617;SDS011;12762;51.730;5.356;2023-09-19T13:17:01;6.53;;;1.13;;
24617;SDS011;12762;51.730;5.356;2023-09-19T13:19:45;9.00;;;1.20;;
24617;SDS011;12762;51.730;5.356;2023-09-19T13:25:13;2.70;;;0.57;;
24617;SDS011;12762;51.730;5.356;2023-09-19T13:27:46;2.00;;;0.63;;
24617;SDS011;12762;51.730;5.356;2023-09-19T13:30:20;4.23;;;0.80;;
24617;SDS011;12762;51.730;5.356;2023-09-19T13:32:48;3.27;;;0.70;;
24617;SDS011;12762;51.730;5.356;2023-09-19T13:35:15;2.27;;;0.57;;
24617;SDS011;12762;51.730;5.356;2023-09-19T13:37:43;6.63;;;0.60;;
24617;SDS011;12762;51.730;5.356;2023-09-19T13:40:15;2.33;;;0.80;;
24617;SDS011;12762;51.730;5.356;2023-09-19T13:42:42;3.87;;;0.57;;
24617;SDS011;12762;51.730;5.356;2023-09-19T13:45:09;3.47;;;0.80;;
24617;SDS011;12762;51.730;5.356;2023-09-19T13:47:39;2.57;;;1.00;;
24617;SDS011;12762;51.730;5.356;2023-09-19T13:50:07;3.47;;;0.90;;
24617;SDS011;12762;51.730;5.356;2023-09-19T13:52:37;3.70;;;0.67;;
24617;SDS011;12762;51.730;5.356;2023-09-19T13:55:04;3.43;;;0.70;;
24617;SDS011;12762;51.730;5.356;2023-09-19T13:57:33;4.70;;;0.60;;
24617;SDS011;12762;51.730;5.356;2023-09-19T13:59:59;3.20;;;0.77;;
24617;SDS011;12762;51.730;5.356;2023-09-19T14:02:26;4.67;;;1.13;;
24617;SDS011;12762;51.730;5.356;2023-09-19T14:04:53;4.30;;;0.83;;
24617;SDS011;12762;51.730;5.356;2023-09-19T14:07:21;4.43;;;0.90;;
24617;SDS011;12762;51.730;5.356;2023-09-19T14:09:48;5.53;;;0.80;;
24617;SDS011;12762;51.730;5.356;2023-09-19T14:12:17;6.47;;;0.93;;
24617;SDS011;12762;51.730;5.356;2023-09-19T14:14:44;6.90;;;1.10;;
24617;SDS011;12762;51.730;5.356;2023-09-19T14:17:11;1.37;;;0.63;;
24617;SDS011;12762;51.730;5.356;2023-09-19T14:19:40;4.43;;;0.80;;
24617;SDS011;12762;51.730;5.356;2023-09-19T14:22:11;4.73;;;1.00;;
24617;SDS011;12762;51.730;5.356;2023-09-19T14:24:40;4.37;;;0.80;;
24617;SDS011;12762;51.730;5.356;2023-09-19T14:27:07;2.50;;;0.80;;
24617;SDS011;12762;51.730;5.356;2023-09-19T14:29:35;3.17;;;0.80;;
24617;SDS011;12762;51.730;5.356;2023-09-19T14:32:02;3.80;;;1.03;;
24617;SDS011;12762;51.730;5.356;2023-09-19T14:34:30;5.00;;;1.10;;
24617;SDS011;12762;51.730;5.356;2023-09-19T14:36:57;2.57;;;0.90;;
24617;SDS011;12762;51.730;5.356;2023-09-19T14:39:24;4.93;;;0.90;;
24617;SDS011;12762;51.730;5.356;2023-09-19T14:41:51;3.63;;;0.90;;
24617;SDS011;12762;51.730;5.356;2023-09-19T14:44:18;5.23;;;1.00;;
24617;SDS011;12762;51.730;5.356;2023-09-19T14:46:46;4.23;;;0.90;;
24617;SDS011;12762;51.730;5.356;2023-09-19T14:49:13;5.80;;;0.80;;
24617;SDS011;12762;51.730;5.356;2023-09-19T14:51:42;5.70;;;0.97;;
24617;SDS011;12762;51.730;5.356;2023-09-19T14:54:13;6.00;;;1.03;;
24617;SDS011;12762;51.730;5.356;2023-09-19T14:56:43;4.13;;;0.83;;
24617;SDS011;12762;51.730;5.356;2023-09-19T14:59:10;5.00;;;1.10;;
24617;SDS011;12762;51.730;5.356;2023-09-19T15:01:37;4.37;;;0.93;;
24617;SDS011;12762;51.730;5.356;2023-09-19T15:04:05;5.40;;;0.90;;
24617;SDS011;12762;51.730;5.356;2023-09-19T15:06:32;3.23;;;1.20;;
24617;SDS011;12762;51.730;5.356;2023-09-19T15:09:00;3.40;;;1.10;;
24617;SDS011;12762;51.730;5.356;2023-09-19T15:11:27;5.03;;;0.80;;
24617;SDS011;12762;51.730;5.356;2023-09-19T15:13:54;5.03;;;1.60;;
24617;SDS011;12762;51.730;5.356;2023-09-19T15:16:21;5.57;;;0.90;;
24617;SDS011;12762;51.730;5.356;2023-09-19T15:18:48;3.47;;;1.00;;
24617;SDS011;12762;51.730;5.356;2023-09-19T15:21:18;8.73;;;1.30;;
24617;SDS011;12762;51.730;5.356;2023-09-19T15:23:45;3.13;;;1.00;;
24617;SDS011;12762;51.730;5.356;2023-09-19T15:26:14;2.67;;;1.10;;
24617;SDS011;12762;51.730;5.356;2023-09-19T15:28:47;6.73;;;1.40;;
24617;SDS011;12762;51.730;5.356;2023-09-19T15:31:14;5.80;;;1.23;;
24617;SDS011;12762;51.730;5.356;2023-09-19T15:33:42;3.10;;;1.50;;
24617;SDS011;12762;51.730;5.356;2023-09-19T15:36:12;3.37;;;1.10;;
24617;SDS011;12762;51.730;5.356;2023-09-19T15:41:33;9.47;;;1.17;;
24617;SDS011;12762;51.730;5.356;2023-09-19T15:44:03;4.77;;;1.17;;
24617;SDS011;12762;51.730;5.356;2023-09-19T15:46:32;4.50;;;0.97;;
24617;SDS011;12762;51.730;5.356;2023-09-19T15:49:03;3.17;;;1.00;;
24617;SDS011;12762;51.730;5.356;2023-09-19T15:51:30;4.17;;;1.10;;
24617;SDS011;12762;51.730;5.356;2023-09-19T15:53:57;4.40;;;1.13;;
24617;SDS011;12762;51.730;5.356;2023-09-19T15:56:26;5.27;;;1.20;;
24617;SDS011;12762;51.730;5.356;2023-09-19T15:58:53;4.47;;;1.40;;
24617;SDS011;12762;51.730;5.356;2023-09-19T16:01:21;7.00;;;1.43;;
24617;SDS011;12762;51.730;5.356;2023-09-19T16:03:50;4.03;;;1.10;;
24617;SDS011;12762;51.730;5.356;2023-09-19T16:06:25;2.73;;;1.00;;